AirNav   Free Bose QuietComfort 20
 
 1424 users online  

22PS Montrose High School Heliport
Montrose, Pennsylvania, USA

GOING TO MONTROSE?


FAA INFORMATION EFFECTIVE 05 DECEMBER 2019

Location

FAA Identifier: 22PS
Lat/Long: 41-50-36.3100N 075-50-33.3100W
41-50.605167N 075-50.555167W
41.8434194,-75.8425861
(estimated)
Elevation: 1740 ft. / 530 m (estimated)
Variation: 13W (2005)
From city: 2 miles W of MONTROSE, PA
Time zone: UTC -5 (UTC -4 during Daylight Saving Time)
Zip code: 18801

Heliport Operations

Heliport use: Private use, MEDICAL USE.
Activation date: 01/2007
Control tower: no
ARTCC: NEW YORK CENTER
FSS: WILLIAMSPORT FLIGHT SERVICE STATION
NOTAMs facility: FDC (NOTAM-D service not available)
Attendance: CONTINUOUS
Segmented circle: no
Lights: FOR PERIMETER LGTS CALL 570-278-3731.

Heliport Communications

BINGHAMTON APPROACH: 118.6
BINGHAMTON DEPARTURE: 118.6
FIBTI DP: 118.6
WX AWOS-3 at CZG (18 nm NW): 119.075 (607-785-2926)

Nearby radio navigation aids

VOR radial/distance  VOR name  Freq  Var
CFBr155/23.0BINGHAMTON VOR/DME112.2010W
HNKr252/26.9HANCOCK VOR/DME116.8011W
LVZr359/34.9WILKES-BARRE VORTAC111.6010W

Heliport Services

Runway Information

Helipad H1

Dimensions: 50 x 50 ft. / 15 x 15 m
Surface: turf, in fair condition
Runway edge lights: PERI
Latitude: 41-50.605167N
Longitude: 075-50.555167W
Elevation: 1740.0 ft.
Traffic pattern: leftleft
Markings: none, in fair condition

Heliport Ownership and Management from official FAA records

Ownership: Privately-owned
Owner: MONTROSE HIGH SCHOOL
75 METEOR WAY
MONTROSE, PA 18801-9507
Phone 570-278-3731
Manager: MICHELLE LUSK, BUS. MGR.
273 METEOR WAY
MONTROSE, PA 18801-9507
Phone 570-278-6213

Additional Remarks

FOR CD CTC NEW YORK ARTCC AT 631-468-1425.

Instrument Procedures

There are no published instrument procedures at 22PS.

Some nearby airports with instrument procedures:

9N3 - Seamans Field Airport (16 nm S)
KCZG - Tri-Cities Airport (18 nm NW)
KBGM - Greater Binghamton Airport/Edwin A Link Field (23 nm N)
N27 - Bradford County Airport (28 nm W)
KAVP - Wilkes-Barre/Scranton International Airport (31 nm S)
 
Loc | Ops | Rwys | IFR | FBO | Links
Com | Nav | Svcs | Stats | Notes
Area around 22PS (Montrose High School Heliport)
 
Road maps at: MapQuest Bing Google
 
Aerial photo
No photo
 
Sectional chart

 
Airport distance calculator
Flying to Montrose High School Heliport? Find the distance to fly.

From to 22PS

Sunrise and sunset
Times for 09-Dec-2019
 Local
(UTC-5)
 Zulu
(UTC)
Morning civil twilight06:4911:49
Sunrise07:2012:20
Sunset16:3121:31
Evening civil twilight17:0322:03

Current date and time
Zulu (UTC)  09-Dec-2019 18:57:46
Local (UTC-5)  09-Dec-2019 13:57:46
 
METAR
KBGM 
23nm N 
091853Z 16009KT 10SM OVC009 04/04 A2973 RMK AO2 RAE48 CIG 006V011 SLP080 P0002 T00440039
KAVP 
31nm S 
091854Z 20009G15KT 160V220 6SM -RA OVC016 08/06 A2983 RMK AO2 SLP103 P0001 T00830056
KITH 
46nm NW 
091756Z 16013KT 10SM -RA BKN050 OVC085 04/03 A2977 RMK AO2 RAB23 SLP089 P0000 60002 T00440033 10044 20028 58055
TAF
KBGM 
23nm N 
091741Z 0918/1018 17009KT 5SM -RA BR SCT004 BKN009 OVC025 WS020/20035KT TEMPO 0918/0922 2SM -RA BR OVC004 FM100200 19012G20KT 3SM BR OVC012 WS020/22045KT TEMPO 1002/1006 2SM -SHRA OVC007 FM100800 21010KT 5SM -SHRA BR OVC014 WS020/23040KT FM101600 27010G18KT P6SM SCT020 OVC028
NOTAMs
Click for the latest NOTAMs
NOTAMs are issued by the DoD/FAA and will open in a separate window not controlled by AirNav.

 

 
 

Would you like to see your business listed on this page?

 If your business provides an interesting product or service to pilots, flight crews, aircraft, or users of the Montrose High School Heliport, you should consider listing it here.  To start the listing process, click on the button below
 
Add a business
 

Other Pages about Montrose High School Heliport

Update a link
 
Copyright © AirNav, LLC. All rights reserved. Privacy Policy  Contact